Arizona City, Arizona
Current Conditions -  °F | °C
As of 4:55 AM on Thursday 27 Nov 2014 (Local Time) from KCGZ Reporting Station
Clear Clear  
Wind Chill: 41°   Ceiling: Unl
Heat Index: 41°   Visibility: 10mi
Dew Point: 14°   Wind: 0mph
Humidity: 33%   Direction: NA
Pressure: 30.2"   Gusts: NA
Location:  32.75°N, 111.67°W
Report Text: KCGZ 271155Z AUTO 00000KT 10SM CLR 05/M10 A3020 RMK AO1 10110 20040 54000
Loading
Personal Weather Stations






























Interactive Weather Map New forecast layout! Learn more

10-Day Weather Forecast

Advertisements
Track Severe Weather on mobile